Time;durP1;ratioP1;P1;durP2;ratioP2;P2;SDS_P1;SDS_P2;PMS_P1;PMS_P2;Temp;Humidity;BMP_temperature;BMP_pressure;BME280_temperature;BME280_humidity;BME280_pressure;Samples;Min_cycle;Max_cycle;Signal;HPM_P1;HPM_P2
2023/04/18 00:01:29;;;;;;;70.70;14.80;;;;;;;;;;5073897;28;20458;-68
2023/04/18 00:03:56;;;;;;;71.50;15.30;;;;;;;;;;5073931;28;20451;-68
2023/04/18 00:06:24;;;;;;;70.87;15.30;;;;;;;;;;5073754;28;20457;-68
2023/04/18 00:08:51;;;;;;;70.73;15.10;;;;;;;;;;5073262;28;20839;-68
2023/04/18 00:11:19;;;;;;;70.10;13.90;;;;;;;;;;5073612;28;20894;-68
2023/04/18 00:13:48;;;;;;;70.27;14.27;;;;;;;;;;5073600;28;20452;-68
2023/04/18 00:16:15;;;;;;;71.87;15.30;;;;;;;;;;5073648;28;20454;-68
2023/04/18 00:18:42;;;;;;;72.57;15.30;;;;;;;;;;5073178;28;20467;-68
2023/04/18 00:21:09;;;;;;;70.27;14.87;;;;;;;;;;5073766;28;20483;-68
2023/04/18 00:23:37;;;;;;;72.57;16.30;;;;;;;;;;5073205;28;20467;-68
2023/04/18 00:26:04;;;;;;;71.30;14.30;;;;;;;;;;5073201;28;20871;-68
2023/04/18 00:28:31;;;;;;;75.27;14.90;;;;;;;;;;5073203;28;20471;-68
2023/04/18 00:30:59;;;;;;;70.57;13.97;;;;;;;;;;5073047;28;20454;-68
2023/04/18 00:33:27;;;;;;;70.10;14.90;;;;;;;;;;5073202;28;20452;-68
2023/04/18 00:35:54;;;;;;;69.33;13.57;;;;;;;;;;5073407;28;20447;-68
2023/04/18 00:38:21;;;;;;;70.67;15.13;;;;;;;;;;5072872;28;20474;-68
2023/04/18 00:40:48;;;;;;;69.10;14.67;;;;;;;;;;5072566;28;20495;-68
2023/04/18 00:43:15;;;;;;;70.00;14.70;;;;;;;;;;5072764;28;20458;-68
2023/04/18 00:45:42;;;;;;;73.97;16.00;;;;;;;;;;5072799;28;20900;-68
2023/04/18 00:48:11;;;;;;;71.00;14.80;;;;;;;;;;5072768;28;20448;-68
2023/04/18 00:50:40;;;;;;;70.23;14.23;;;;;;;;;;5072533;28;20470;-68
2023/04/18 00:53:07;;;;;;;75.40;15.47;;;;;;;;;;5072622;28;20452;-68
2023/04/18 00:55:34;;;;;;;72.77;14.97;;;;;;;;;;5072678;28;20461;-68
2023/04/18 00:58:01;;;;;;;71.13;14.67;;;;;;;;;;5072440;28;20536;-68
2023/04/18 01:00:28;;;;;;;72.80;14.70;;;;;;;;;;5072358;28;20479;-68
2023/04/18 01:02:55;;;;;;;72.30;15.10;;;;;;;;;;5072621;28;20451;-68
2023/04/18 01:05:24;;;;;;;70.00;14.67;;;;;;;;;;5072471;28;20524;-68
2023/04/18 01:07:51;;;;;;;70.60;14.63;;;;;;;;;;5072404;28;20451;-68
2023/04/18 01:10:19;;;;;;;70.07;13.67;;;;;;;;;;5072220;28;20464;-68
2023/04/18 01:12:46;;;;;;;70.40;13.27;;;;;;;;;;5072524;28;20520;-68
2023/04/18 01:15:13;;;;;;;71.93;14.43;;;;;;;;;;5072370;28;20450;-68
2023/04/18 01:17:41;;;;;;;70.57;14.63;;;;;;;;;;5072355;28;20451;-68
2023/04/18 01:20:09;;;;;;;69.97;14.40;;;;;;;;;;5071642;28;20486;-68
2023/04/18 01:22:37;;;;;;;70.33;13.77;;;;;;;;;;5072447;28;20450;-68
2023/04/18 01:25:10;;;;;;;68.67;14.00;;;;;;;;;;5072046;28;20463;-68
2023/04/18 01:27:37;;;;;;;73.70;13.60;;;;;;;;;;5072139;28;20767;-68
2023/04/18 01:30:04;;;;;;;70.10;13.23;;;;;;;;;;5071589;28;20474;-68
2023/04/18 01:32:31;;;;;;;68.93;13.40;;;;;;;;;;5070405;28;20453;-68
2023/04/18 01:34:58;;;;;;;70.33;13.50;;;;;;;;;;5072117;28;20466;-68
2023/04/18 01:37:25;;;;;;;73.53;14.77;;;;;;;;;;5072080;28;20455;-68
2023/04/18 01:39:53;;;;;;;70.50;14.17;;;;;;;;;;5071585;28;20490;-68
2023/04/18 01:42:21;;;;;;;71.27;14.97;;;;;;;;;;5071778;28;20954;-68
2023/04/18 01:44:48;;;;;;;71.57;14.20;;;;;;;;;;5072113;28;20447;-68
2023/04/18 01:47:15;;;;;;;69.40;13.83;;;;;;;;;;5071890;28;20969;-68
2023/04/18 01:49:46;;;;;;;72.80;15.00;;;;;;;;;;5071692;28;20474;-68
2023/04/18 01:52:14;;;;;;;71.20;13.97;;;;;;;;;;5071988;28;20765;-68
2023/04/18 01:54:41;;;;;;;71.43;13.93;;;;;;;;;;5071619;28;20449;-68
2023/04/18 01:57:08;;;;;;;68.27;12.97;;;;;;;;;;5071367;28;20448;-68
2023/04/18 01:59:37;;;;;;;68.60;13.73;;;;;;;;;;5071405;28;20471;-68
2023/04/18 02:02:04;;;;;;;68.80;13.40;;;;;;;;;;5071857;28;20824;-68
2023/04/18 02:04:31;;;;;;;70.57;13.30;;;;;;;;;;5071855;28;20449;-68
2023/04/18 02:06:58;;;;;;;70.20;14.67;;;;;;;;;;5072286;28;20458;-68
2023/04/18 02:09:25;;;;;;;71.47;14.60;;;;;;;;;;5071090;28;20983;-68
2023/04/18 02:11:54;;;;;;;71.90;15.07;;;;;;;;;;5071881;28;20451;-68
2023/04/18 02:14:21;;;;;;;70.30;12.97;;;;;;;;;;5071549;28;20447;-68
2023/04/18 02:16:49;;;;;;;69.97;13.00;;;;;;;;;;5071753;28;20451;-68
2023/04/18 02:19:16;;;;;;;69.70;13.47;;;;;;;;;;5071246;28;20471;-68
2023/04/18 02:21:44;;;;;;;69.47;13.83;;;;;;;;;;5071497;28;20490;-68
2023/04/18 02:24:11;;;;;;;73.60;14.10;;;;;;;;;;5071705;28;20459;-68
2023/04/18 02:26:38;;;;;;;68.93;13.07;;;;;;;;;;5071446;28;20932;-67
2023/04/18 02:29:05;;;;;;;72.33;13.77;;;;;;;;;;5071105;28;20467;-67
2023/04/18 02:31:32;;;;;;;70.03;14.10;;;;;;;;;;5071594;28;20435;-67
2023/04/18 02:34:01;;;;;;;69.70;13.23;;;;;;;;;;5071398;28;20959;-67
2023/04/18 02:36:28;;;;;;;71.50;14.90;;;;;;;;;;5071239;28;20449;-68
2023/04/18 02:38:55;;;;;;;67.67;13.17;;;;;;;;;;5071204;28;20850;-68
2023/04/18 02:41:22;;;;;;;70.20;13.83;;;;;;;;;;5071466;28;20490;-67
2023/04/18 02:43:49;;;;;;;73.20;14.50;;;;;;;;;;5071272;28;20458;-67
2023/04/18 02:46:17;;;;;;;70.67;13.80;;;;;;;;;;5071336;28;20451;-68
2023/04/18 02:48:44;;;;;;;70.10;14.30;;;;;;;;;;5070855;28;20812;-67
2023/04/18 02:51:12;;;;;;;72.20;13.60;;;;;;;;;;5071179;28;20443;-67
2023/04/18 02:53:39;;;;;;;70.43;13.60;;;;;;;;;;5071449;28;20447;-67
2023/04/18 02:56:07;;;;;;;75.03;14.13;;;;;;;;;;5071395;28;20443;-68
2023/04/18 02:58:35;;;;;;;68.83;13.63;;;;;;;;;;5070690;28;20716;-67
2023/04/18 03:01:02;;;;;;;70.20;13.83;;;;;;;;;;5071153;28;20502;-67
2023/04/18 03:03:29;;;;;;;74.43;14.00;;;;;;;;;;5071106;28;20475;-67
2023/04/18 03:05:56;;;;;;;71.70;14.13;;;;;;;;;;5071304;28;20447;-67
2023/04/18 03:08:25;;;;;;;70.27;13.40;;;;;;;;;;5074089;28;20479;-67
2023/04/18 03:10:52;;;;;;;79.97;15.07;;;;;;;;;;5074728;28;20439;-67
2023/04/18 03:13:19;;;;;;;71.73;14.47;;;;;;;;;;5074722;28;20449;-67
2023/04/18 03:15:46;;;;;;;69.30;13.53;;;;;;;;;;5074630;28;20953;-67
2023/04/18 03:18:14;;;;;;;70.40;14.20;;;;;;;;;;5074406;28;20546;-68
2023/04/18 03:20:41;;;;;;;72.13;13.77;;;;;;;;;;5074369;28;20836;-68
2023/04/18 03:23:08;;;;;;;72.97;14.63;;;;;;;;;;5074533;28;20447;-67
2023/04/18 03:25:36;;;;;;;69.90;13.40;;;;;;;;;;5074601;28;20454;-68
2023/04/18 03:28:04;;;;;;;71.20;14.00;;;;;;;;;;5074247;28;20448;-68
2023/04/18 03:30:31;;;;;;;69.80;13.17;;;;;;;;;;5073977;28;20439;-68
2023/04/18 03:33:01;;;;;;;71.50;13.20;;;;;;;;;;5074574;28;20455;-68
2023/04/18 03:35:28;;;;;;;70.97;13.90;;;;;;;;;;5074710;28;20533;-68
2023/04/18 03:37:55;;;;;;;73.50;14.47;;;;;;;;;;5074284;28;20483;-68
2023/04/18 03:40:22;;;;;;;70.97;13.40;;;;;;;;;;5073821;28;20482;-68
2023/04/18 03:42:51;;;;;;;72.00;13.40;;;;;;;;;;5074125;28;20827;-68
2023/04/18 03:45:18;;;;;;;69.67;14.17;;;;;;;;;;5074035;28;20479;-68
2023/04/18 03:47:45;;;;;;;69.70;12.97;;;;;;;;;;5074283;28;20458;-68
2023/04/18 03:50:12;;;;;;;71.60;14.20;;;;;;;;;;5073550;28;20463;-68
2023/04/18 03:52:40;;;;;;;69.20;12.90;;;;;;;;;;5074061;28;20518;-68
2023/04/18 03:55:07;;;;;;;72.13;14.17;;;;;;;;;;5073901;28;20962;-68
2023/04/18 03:57:34;;;;;;;71.67;15.17;;;;;;;;;;5073775;28;20443;-68
2023/04/18 04:00:03;;;;;;;73.10;14.80;;;;;;;;;;5073329;28;20992;-68
2023/04/18 04:02:30;;;;;;;71.27;15.07;;;;;;;;;;5073760;28;20451;-68
2023/04/18 04:04:58;;;;;;;74.20;15.10;;;;;;;;;;5073824;28;20443;-68
2023/04/18 04:07:25;;;;;;;69.00;13.40;;;;;;;;;;5073826;28;20447;-68
2023/04/18 04:09:52;;;;;;;71.23;14.30;;;;;;;;;;5073344;28;20558;-68
2023/04/18 04:12:19;;;;;;;69.60;13.13;;;;;;;;;;5073470;28;20450;-68
2023/04/18 04:14:46;;;;;;;73.00;14.37;;;;;;;;;;5073470;28;20454;-68
2023/04/18 04:17:15;;;;;;;69.90;14.33;;;;;;;;;;5073668;28;20455;-68
2023/04/18 04:19:42;;;;;;;71.57;13.90;;;;;;;;;;5072216;28;20566;-68
2023/04/18 04:22:09;;;;;;;71.10;14.63;;;;;;;;;;5073350;28;21011;-68
2023/04/18 04:24:37;;;;;;;73.50;15.60;;;;;;;;;;5073249;28;20551;-68
2023/04/18 04:27:04;;;;;;;70.20;15.20;;;;;;;;;;5073570;28;20870;-68
2023/04/18 04:29:31;;;;;;;71.27;14.63;;;;;;;;;;5072987;28;20475;-68
2023/04/18 04:31:59;;;;;;;69.40;14.07;;;;;;;;;;5073166;28;20450;-68
2023/04/18 04:34:27;;;;;;;69.60;13.80;;;;;;;;;;5073210;28;20489;-68
2023/04/18 04:36:55;;;;;;;71.40;14.97;;;;;;;;;;5073148;28;20447;-68
2023/04/18 04:39:22;;;;;;;76.70;15.23;;;;;;;;;;5072554;28;20463;-68
2023/04/18 04:41:52;;;;;;;72.67;14.23;;;;;;;;;;5073085;28;20483;-68
2023/04/18 04:44:20;;;;;;;72.10;14.30;;;;;;;;;;5073234;28;20454;-68
2023/04/18 04:46:48;;;;;;;70.97;14.23;;;;;;;;;;5072850;28;21015;-68
2023/04/18 04:49:15;;;;;;;72.23;14.80;;;;;;;;;;5072409;28;20471;-68
2023/04/18 04:51:44;;;;;;;72.87;16.40;;;;;;;;;;5072786;28;20439;-68
2023/04/18 04:54:11;;;;;;;74.00;16.83;;;;;;;;;;5072717;28;20447;-68
2023/04/18 04:56:38;;;;;;;72.77;15.40;;;;;;;;;;5072569;28;20455;-68
2023/04/18 04:59:06;;;;;;;69.20;13.63;;;;;;;;;;5072330;28;20476;-68
2023/04/18 05:01:33;;;;;;;66.50;12.70;;;;;;;;;;5072557;28;20506;-68
2023/04/18 05:04:00;;;;;;;67.60;12.33;;;;;;;;;;5072486;28;20940;-68
2023/04/18 05:06:27;;;;;;;69.70;14.07;;;;;;;;;;5072381;28;20443;-68
2023/04/18 05:08:58;;;;;;;69.50;12.53;;;;;;;;;;5071984;28;20547;-68
2023/04/18 05:11:25;;;;;;;69.87;14.30;;;;;;;;;;5072590;28;20743;-68
2023/04/18 05:13:52;;;;;;;73.70;14.87;;;;;;;;;;5072524;28;20829;-68
2023/04/18 05:16:19;;;;;;;70.20;14.87;;;;;;;;;;5072369;28;20450;-68
2023/04/18 05:18:46;;;;;;;70.77;13.90;;;;;;;;;;5071815;28;20468;-68
2023/04/18 05:21:13;;;;;;;71.83;14.40;;;;;;;;;;5072187;28;21016;-68
2023/04/18 05:23:40;;;;;;;71.83;14.50;;;;;;;;;;5072138;28;20459;-68
2023/04/18 05:26:09;;;;;;;72.50;14.90;;;;;;;;;;5071687;28;20446;-68
2023/04/18 05:28:36;;;;;;;72.40;15.17;;;;;;;;;;5070652;28;20477;-68
2023/04/18 05:31:03;;;;;;;72.93;15.27;;;;;;;;;;5071069;28;20450;-68
2023/04/18 05:33:31;;;;;;;71.03;15.10;;;;;;;;;;5071259;28;20982;-68
2023/04/18 05:35:58;;;;;;;73.20;14.93;;;;;;;;;;5071131;28;20448;-68
2023/04/18 05:38:25;;;;;;;72.70;14.90;;;;;;;;;;5070758;28;20478;-68
2023/04/18 05:40:54;;;;;;;72.77;15.23;;;;;;;;;;5070911;28;20487;-68
2023/04/18 05:43:23;;;;;;;68.17;13.47;;;;;;;;;;5071503;28;20454;-68
2023/04/18 05:45:51;;;;;;;71.80;14.27;;;;;;;;;;5071900;28;20824;-68
2023/04/18 05:48:18;;;;;;;75.13;13.90;;;;;;;;;;5070950;28;20459;-68
2023/04/18 05:50:45;;;;;;;70.90;14.27;;;;;;;;;;5071224;28;20993;-68
2023/04/18 05:53:12;;;;;;;70.27;14.87;;;;;;;;;;5071146;28;20447;-68
2023/04/18 05:55:40;;;;;;;71.90;14.83;;;;;;;;;;5071404;28;20948;-68
2023/04/18 05:58:07;;;;;;;72.40;15.17;;;;;;;;;;5071525;28;20568;-68
2023/04/18 06:00:35;;;;;;;69.40;12.50;;;;;;;;;;5070879;28;20447;-68
2023/04/18 06:03:02;;;;;;;72.77;14.67;;;;;;;;;;5071860;28;20440;-68
2023/04/18 06:05:30;;;;;;;73.13;15.13;;;;;;;;;;5071287;28;20447;-68
2023/04/18 06:07:57;;;;;;;70.53;14.17;;;;;;;;;;5071615;28;20477;-68
2023/04/18 06:10:24;;;;;;;71.53;15.77;;;;;;;;;;5071268;28;20788;-68
2023/04/18 06:12:51;;;;;;;69.07;13.40;;;;;;;;;;5071685;28;20452;-68
2023/04/18 06:15:18;;;;;;;69.43;13.87;;;;;;;;;;5072010;28;20799;-68
2023/04/18 06:17:47;;;;;;;85.47;15.10;;;;;;;;;;5071709;28;20446;-68
2023/04/18 06:20:14;;;;;;;69.50;13.47;;;;;;;;;;5071316;28;20994;-68
2023/04/18 06:22:41;;;;;;;69.10;12.97;;;;;;;;;;5071627;28;20566;-68
2023/04/18 06:25:08;;;;;;;72.87;15.57;;;;;;;;;;5071554;28;20839;-68
2023/04/18 06:27:36;;;;;;;69.13;13.10;;;;;;;;;;5071402;28;20871;-68
2023/04/18 06:30:03;;;;;;;71.03;13.80;;;;;;;;;;5071070;28;20995;-68
2023/04/18 06:32:30;;;;;;;70.60;14.57;;;;;;;;;;5071632;28;20443;-68
2023/04/18 06:34:58;;;;;;;70.40;13.53;;;;;;;;;;5071327;28;20541;-68
2023/04/18 06:37:26;;;;;;;69.90;14.67;;;;;;;;;;5071423;28;20486;-68
2023/04/18 06:39:54;;;;;;;71.57;14.53;;;;;;;;;;5071057;28;20848;-68
2023/04/18 06:42:21;;;;;;;69.67;13.97;;;;;;;;;;5072725;28;20489;-68
2023/04/18 06:44:48;;;;;;;68.33;12.90;;;;;;;;;;5075163;28;20954;-68
2023/04/18 06:47:15;;;;;;;69.37;13.43;;;;;;;;;;5075382;28;20442;-68
2023/04/18 06:49:42;;;;;;;72.70;14.27;;;;;;;;;;5074790;28;20819;-68
2023/04/18 06:52:11;;;;;;;69.00;13.90;;;;;;;;;;5075131;28;20439;-68
2023/04/18 06:54:38;;;;;;;69.80;12.47;;;;;;;;;;5074911;28;20443;-68
2023/04/18 06:57:05;;;;;;;66.80;11.63;;;;;;;;;;5074917;28;20444;-67
2023/04/18 06:59:32;;;;;;;68.20;13.03;;;;;;;;;;5074675;28;20893;-67
2023/04/18 07:01:59;;;;;;;67.70;11.60;;;;;;;;;;5075075;28;20490;-67
2023/04/18 07:04:26;;;;;;;68.63;12.30;;;;;;;;;;5074834;28;21000;-67
2023/04/18 07:06:53;;;;;;;69.97;13.63;;;;;;;;;;5074817;28;20447;-67
2023/04/18 07:09:22;;;;;;;69.57;12.63;;;;;;;;;;5074241;28;20473;-67
2023/04/18 07:11:49;;;;;;;69.27;12.83;;;;;;;;;;5074837;28;20458;-67
2023/04/18 07:14:18;;;;;;;69.40;12.93;;;;;;;;;;5074602;28;20546;-67
2023/04/18 07:16:46;;;;;;;70.23;12.50;;;;;;;;;;5074590;28;20964;-67
2023/04/18 07:19:13;;;;;;;69.77;13.40;;;;;;;;;;5074210;28;20466;-67
2023/04/18 07:21:42;;;;;;;68.57;12.53;;;;;;;;;;5074261;28;20475;-67
2023/04/18 07:24:09;;;;;;;70.70;13.30;;;;;;;;;;5074533;28;20473;-67
2023/04/18 07:26:38;;;;;;;67.27;12.60;;;;;;;;;;5074637;28;20553;-67
2023/04/18 07:29:05;;;;;;;70.07;13.17;;;;;;;;;;5074130;28;20554;-67
2023/04/18 07:31:32;;;;;;;68.37;13.50;;;;;;;;;;5074509;28;20439;-67
2023/04/18 07:33:59;;;;;;;68.90;13.60;;;;;;;;;;5074209;28;20947;-67
2023/04/18 07:36:27;;;;;;;70.53;14.50;;;;;;;;;;5074075;28;21065;-67
2023/04/18 07:38:54;;;;;;;68.30;12.33;;;;;;;;;;5073967;28;20474;-67
2023/04/18 07:41:21;;;;;;;67.80;12.40;;;;;;;;;;5074305;28;20455;-67
2023/04/18 07:43:49;;;;;;;68.03;12.53;;;;;;;;;;5074182;28;20452;-67
2023/04/18 07:46:17;;;;;;;68.87;13.00;;;;;;;;;;5074188;28;20445;-67
2023/04/18 07:48:44;;;;;;;69.47;13.33;;;;;;;;;;5073686;28;20497;-67
2023/04/18 07:51:11;;;;;;;69.07;13.50;;;;;;;;;;5073856;28;20454;-67
2023/04/18 07:53:39;;;;;;;72.60;15.47;;;;;;;;;;5072839;28;20833;-67
2023/04/18 07:56:07;;;;;;;69.53;13.90;;;;;;;;;;5074064;28;20456;-67
2023/04/18 07:58:34;;;;;;;68.87;12.87;;;;;;;;;;5073402;28;21015;-67
2023/04/18 08:01:03;;;;;;;70.50;13.50;;;;;;;;;;5073768;28;20447;-67
2023/04/18 08:03:32;;;;;;;68.97;13.57;;;;;;;;;;5073566;28;20487;-67
2023/04/18 08:06:01;;;;;;;68.17;13.00;;;;;;;;;;5073878;28;20505;-67
2023/04/18 08:08:28;;;;;;;66.63;11.90;;;;;;;;;;5073478;28;20475;-67
2023/04/18 08:10:55;;;;;;;67.27;12.70;;;;;;;;;;5073463;28;20447;-67
2023/04/18 08:13:22;;;;;;;71.10;13.80;;;;;;;;;;5073567;28;20467;-67
2023/04/18 08:15:49;;;;;;;68.80;12.23;;;;;;;;;;5073504;28;20450;-67
2023/04/18 08:18:18;;;;;;;68.93;13.57;;;;;;;;;;5073256;28;20447;-69
2023/04/18 08:20:45;;;;;;;69.63;13.50;;;;;;;;;;5073149;28;20984;-69
2023/04/18 08:23:13;;;;;;;68.73;13.90;;;;;;;;;;5073370;28;20877;-69
2023/04/18 08:25:40;;;;;;;68.87;12.83;;;;;;;;;;5073500;28;20461;-69
2023/04/18 08:28:07;;;;;;;67.80;13.00;;;;;;;;;;5073244;28;20823;-70
2023/04/18 08:30:35;;;;;;;68.60;13.10;;;;;;;;;;5072952;28;20482;-69
2023/04/18 08:33:02;;;;;;;68.20;13.63;;;;;;;;;;5073423;28;20472;-69
2023/04/18 08:35:30;;;;;;;71.00;14.07;;;;;;;;;;5073272;28;20479;-69
2023/04/18 08:37:57;;;;;;;69.67;14.27;;;;;;;;;;5073251;28;20451;-68
2023/04/18 08:40:25;;;;;;;67.00;12.77;;;;;;;;;;5072695;28;20952;-70
2023/04/18 08:42:53;;;;;;;67.67;12.60;;;;;;;;;;5073007;28;20558;-67
2023/04/18 08:45:20;;;;;;;68.17;13.40;;;;;;;;;;5072897;28;20459;-68
2023/04/18 08:47:47;;;;;;;70.10;13.97;;;;;;;;;;5072909;28;20960;-68
2023/04/18 08:50:15;;;;;;;66.77;12.20;;;;;;;;;;5072369;28;20471;-67
2023/04/18 08:52:48;;;;;;;68.10;12.10;;;;;;;;;;5072906;28;20861;-67
2023/04/18 08:55:15;;;;;;;66.40;11.83;;;;;;;;;;5072891;28;20451;-68
2023/04/18 08:57:43;;;;;;;68.57;13.10;;;;;;;;;;5072585;28;20447;-67
2023/04/18 09:00:10;;;;;;;68.17;13.47;;;;;;;;;;5072193;28;20471;-67
2023/04/18 09:02:41;;;;;;;70.03;12.30;;;;;;;;;;5072647;28;21019;-68
2023/04/18 09:05:12;;;;;;;67.23;12.37;;;;;;;;;;5072115;28;20999;-68
2023/04/18 09:07:39;;;;;;;71.70;13.63;;;;;;;;;;5072568;28;20447;-68
2023/04/18 09:10:08;;;;;;;68.20;12.97;;;;;;;;;;5071940;28;20497;-68
2023/04/18 09:12:43;;;;;;;68.10;12.57;;;;;;;;;;5072370;28;20943;-68
2023/04/18 09:15:11;;;;;;;68.87;13.00;;;;;;;;;;5072389;28;20454;-68
2023/04/18 09:17:40;;;;;;;69.67;13.20;;;;;;;;;;5072284;28;20450;-68
2023/04/18 09:20:09;;;;;;;67.17;12.00;;;;;;;;;;5071797;28;20472;-68
2023/04/18 09:22:47;;;;;;;69.10;13.03;;;;;;;;;;5071979;28;20487;-68
2023/04/18 09:25:26;;;;;;;67.10;12.27;;;;;;;;;;5072123;28;20963;-68
2023/04/18 09:27:53;;;;;;;66.70;11.73;;;;;;;;;;5072331;28;20866;-68
2023/04/18 09:30:30;;;;;;;66.10;11.13;;;;;;;;;;5072221;28;20474;-68
2023/04/18 09:32:59;;;;;;;66.80;12.07;;;;;;;;;;5072004;28;20447;-68
2023/04/18 09:35:26;;;;;;;69.07;13.40;;;;;;;;;;5072220;28;20500;-68
2023/04/18 09:37:53;;;;;;;69.73;12.77;;;;;;;;;;5072229;28;20444;-68
2023/04/18 09:40:21;;;;;;;68.23;12.73;;;;;;;;;;5071777;28;20478;-68
2023/04/18 09:42:51;;;;;;;68.57;12.87;;;;;;;;;;5071914;28;21064;-68
2023/04/18 09:45:18;;;;;;;67.80;12.70;;;;;;;;;;5072361;28;20844;-68
2023/04/18 09:47:45;;;;;;;68.90;13.27;;;;;;;;;;5071931;28;20443;-68
2023/04/18 09:50:12;;;;;;;65.57;11.33;;;;;;;;;;5071446;28;21026;-68
2023/04/18 09:52:40;;;;;;;66.80;11.23;;;;;;;;;;5071995;28;20455;-68
2023/04/18 09:55:08;;;;;;;65.20;11.40;;;;;;;;;;5071898;28;20455;-68
2023/04/18 09:57:36;;;;;;;66.10;10.67;;;;;;;;;;5071843;28;20451;-69
2023/04/18 10:00:12;;;;;;;65.80;11.90;;;;;;;;;;5071317;28;20474;-69
2023/04/18 10:02:48;;;;;;;65.90;11.23;;;;;;;;;;5071886;28;20512;-69
2023/04/18 10:05:16;;;;;;;65.37;10.73;;;;;;;;;;5071737;28;20450;-69
2023/04/18 10:07:44;;;;;;;66.73;11.70;;;;;;;;;;5071789;28;20455;-68
2023/04/18 10:10:11;;;;;;;65.47;10.50;;;;;;;;;;5071349;28;20517;-68
2023/04/18 10:12:39;;;;;;;65.13;10.53;;;;;;;;;;5071568;28;20454;-68
2023/04/18 10:15:09;;;;;;;65.00;10.17;;;;;;;;;;5071862;28;20455;-69
2023/04/18 10:17:42;;;;;;;64.93;10.00;;;;;;;;;;5073883;28;20455;-69
2023/04/18 10:20:09;;;;;;;64.60;9.93;;;;;;;;;;5075454;28;20481;-69
2023/04/18 10:22:37;;;;;;;66.30;11.50;;;;;;;;;;5075668;28;20566;-68
2023/04/18 10:25:05;;;;;;;64.80;10.03;;;;;;;;;;5075575;28;20466;-69
2023/04/18 10:27:50;;;;;;;65.10;11.00;;;;;;;;;;5075642;28;21020;-69
2023/04/18 10:30:19;;;;;;;64.87;10.13;;;;;;;;;;5068173;28;20482;-69
2023/04/18 10:32:46;;;;;;;64.10;9.40;;;;;;;;;;5075451;28;20443;-68
2023/04/18 10:35:13;;;;;;;63.73;9.40;;;;;;;;;;5075505;28;20443;-69
2023/04/18 10:37:49;;;;;;;63.93;9.23;;;;;;;;;;5075293;28;20962;-69
2023/04/18 10:40:17;;;;;;;64.50;9.17;;;;;;;;;;5075110;28;20459;-68
2023/04/18 10:42:59;;;;;;;63.87;9.87;;;;;;;;;;5073464;28;20502;-70
2023/04/18 10:45:30;;;;;;;65.57;9.97;;;;;;;;;;5073030;28;20497;-69
2023/04/18 10:48:15;;;;;;;64.73;8.93;;;;;;;;;;5074904;28;20512;-68
2023/04/18 10:50:57;;;;;;;63.63;9.63;;;;;;;;;;5074708;28;20962;-68
2023/04/18 10:53:24;;;;;;;63.10;9.07;;;;;;;;;;5075009;28;20828;-69
2023/04/18 10:55:55;;;;;;;66.60;9.27;;;;;;;;;;5075100;28;20439;-68
2023/04/18 10:58:22;;;;;;;63.60;9.00;;;;;;;;;;5074852;28;20514;-69
2023/04/18 11:00:52;;;;;;;63.27;8.60;;;;;;;;;;5074917;28;20443;-69
2023/04/18 11:03:19;;;;;;;62.87;8.50;;;;;;;;;;5074993;28;20479;-68
2023/04/18 11:05:46;;;;;;;62.67;8.23;;;;;;;;;;5074877;28;21037;-68
2023/04/18 11:08:23;;;;;;;62.70;8.37;;;;;;;;;;5074674;28;20453;-69
2023/04/18 11:10:57;;;;;;;63.63;8.40;;;;;;;;;;5074678;28;20435;-69
2023/04/18 11:13:24;;;;;;;62.90;8.67;;;;;;;;;;5075054;28;20859;-69
2023/04/18 11:15:53;;;;;;;62.77;8.33;;;;;;;;;;5074788;28;20450;-68
2023/04/18 11:18:20;;;;;;;64.00;8.87;;;;;;;;;;5074581;28;20463;-69
2023/04/18 11:20:49;;;;;;;62.73;7.63;;;;;;;;;;5072344;28;20447;-69
2023/04/18 11:23:17;;;;;;;61.70;7.27;;;;;;;;;;5073300;28;20853;-69
2023/04/18 11:25:44;;;;;;;63.20;8.90;;;;;;;;;;5073979;28;20451;-69
2023/04/18 11:28:12;;;;;;;62.97;8.43;;;;;;;;;;5073990;28;20834;-69
2023/04/18 11:30:40;;;;;;;62.70;7.70;;;;;;;;;;5074167;28;20455;-68
2023/04/18 11:33:10;;;;;;;63.33;9.40;;;;;;;;;;5074341;28;20534;-68
2023/04/18 11:35:37;;;;;;;62.60;7.83;;;;;;;;;;5074190;28;20802;-68
2023/04/18 11:38:05;;;;;;;64.00;8.30;;;;;;;;;;5073798;28;20451;-68
2023/04/18 11:40:32;;;;;;;62.50;7.97;;;;;;;;;;5074052;28;20453;-68
2023/04/18 11:43:01;;;;;;;62.60;7.83;;;;;;;;;;5073994;28;21007;-68
2023/04/18 11:45:28;;;;;;;63.00;8.13;;;;;;;;;;5074103;28;20466;-68
2023/04/18 11:47:56;;;;;;;63.17;7.50;;;;;;;;;;5074029;28;20451;-68
2023/04/18 11:50:25;;;;;;;63.07;8.47;;;;;;;;;;5073787;28;20451;-69
2023/04/18 11:52:53;;;;;;;64.17;9.30;;;;;;;;;;5073912;28;20475;-68
2023/04/18 11:55:21;;;;;;;65.97;9.63;;;;;;;;;;5074092;28;20534;-68
2023/04/18 11:57:52;;;;;;;63.13;8.83;;;;;;;;;;5073975;28;20455;-68
2023/04/18 12:00:21;;;;;;;63.90;8.27;;;;;;;;;;5073471;28;20473;-68
2023/04/18 12:02:48;;;;;;;63.37;9.00;;;;;;;;;;5073776;28;20451;-68
2023/04/18 12:05:26;;;;;;;62.07;7.50;;;;;;;;;;5073656;28;20474;-68
2023/04/18 12:07:53;;;;;;;63.13;7.67;;;;;;;;;;5073903;28;20542;-68
2023/04/18 12:10:25;;;;;;;65.40;8.30;;;;;;;;;;5073472;28;20467;-69
2023/04/18 12:12:53;;;;;;;60.97;7.33;;;;;;;;;;5073553;28;20455;-69
2023/04/18 12:15:22;;;;;;;61.50;7.03;;;;;;;;;;5073496;28;20453;-66
2023/04/18 12:17:50;;;;;;;60.93;6.37;;;;;;;;;;5073434;28;20443;-67
2023/04/18 12:20:17;;;;;;;60.70;6.67;;;;;;;;;;5073256;28;20554;-68
2023/04/18 12:22:47;;;;;;;61.73;6.60;;;;;;;;;;5073306;28;20447;-68
2023/04/18 12:25:21;;;;;;;60.67;6.50;;;;;;;;;;5073357;28;20554;-69
2023/04/18 12:27:52;;;;;;;59.80;6.07;;;;;;;;;;5073411;28;20466;-68
2023/04/18 12:30:20;;;;;;;62.00;7.07;;;;;;;;;;5072756;28;20476;-68
2023/04/18 12:32:49;;;;;;;61.47;6.10;;;;;;;;;;5073493;28;20460;-68
2023/04/18 12:35:16;;;;;;;60.87;6.50;;;;;;;;;;5073326;28;20499;-68
2023/04/18 12:37:44;;;;;;;59.77;5.90;;;;;;;;;;5073368;28;20842;-68
2023/04/18 12:40:13;;;;;;;60.40;6.00;;;;;;;;;;5071883;28;20467;-68
2023/04/18 12:42:40;;;;;;;60.97;6.80;;;;;;;;;;5072913;28;20481;-68
2023/04/18 12:45:08;;;;;;;60.60;6.70;;;;;;;;;;5072813;28;20540;-69
2023/04/18 12:47:35;;;;;;;59.47;5.63;;;;;;;;;;5072626;28;20940;-69
2023/04/18 12:50:02;;;;;;;59.60;5.30;;;;;;;;;;5072551;28;20464;-68
2023/04/18 12:52:30;;;;;;;60.90;5.93;;;;;;;;;;5072826;28;20839;-68
2023/04/18 12:54:57;;;;;;;61.03;6.30;;;;;;;;;;5072747;28;20444;-68
2023/04/18 12:57:26;;;;;;;59.90;5.90;;;;;;;;;;5072678;28;20469;-68
2023/04/18 12:59:53;;;;;;;60.10;6.27;;;;;;;;;;5072400;28;20483;-68
2023/04/18 13:02:20;;;;;;;60.70;6.00;;;;;;;;;;5072796;28;20451;-68
2023/04/18 13:04:47;;;;;;;59.90;5.63;;;;;;;;;;5072602;28;20487;-68
2023/04/18 13:07:14;;;;;;;60.70;6.20;;;;;;;;;;5072579;28;20530;-68
2023/04/18 13:09:41;;;;;;;59.97;5.33;;;;;;;;;;5072199;28;20517;-68
2023/04/18 13:12:09;;;;;;;60.50;6.00;;;;;;;;;;5072390;28;20454;-68
2023/04/18 13:14:37;;;;;;;60.63;5.30;;;;;;;;;;5072508;28;20444;-69
2023/04/18 13:17:05;;;;;;;59.63;5.43;;;;;;;;;;5072361;28;21010;-68
2023/04/18 13:19:32;;;;;;;59.57;5.90;;;;;;;;;;5071985;28;20499;-68
2023/04/18 13:22:00;;;;;;;61.70;6.10;;;;;;;;;;5072298;28;20447;-69
2023/04/18 13:24:27;;;;;;;60.10;6.23;;;;;;;;;;5071966;28;20487;-68
2023/04/18 13:26:54;;;;;;;59.70;5.67;;;;;;;;;;5072417;28;20443;-68
2023/04/18 13:29:21;;;;;;;60.27;5.60;;;;;;;;;;5071870;28;20463;-68
2023/04/18 13:31:50;;;;;;;60.67;5.83;;;;;;;;;;5072149;28;20452;-68
2023/04/18 13:34:17;;;;;;;59.73;5.60;;;;;;;;;;5072028;28;20446;-68
2023/04/18 13:36:44;;;;;;;60.50;6.63;;;;;;;;;;5071941;28;20470;-68
2023/04/18 13:39:11;;;;;;;60.83;5.80;;;;;;;;;;5071896;28;20967;-68
2023/04/18 13:41:38;;;;;;;61.17;6.20;;;;;;;;;;5072231;28;20459;-68
2023/04/18 13:44:07;;;;;;;62.20;5.93;;;;;;;;;;5071950;28;20972;-68
2023/04/18 13:46:34;;;;;;;59.80;5.30;;;;;;;;;;5072000;28;20481;-68
2023/04/18 13:49:02;;;;;;;61.97;6.77;;;;;;;;;;5071530;28;21001;-68
2023/04/18 13:51:29;;;;;;;60.20;6.10;;;;;;;;;;5071785;28;20457;-68
2023/04/18 13:53:59;;;;;;;60.37;5.50;;;;;;;;;;5072132;28;20501;-68
2023/04/18 13:56:26;;;;;;;60.27;6.30;;;;;;;;;;5072000;28;20446;-68
2023/04/18 13:58:54;;;;;;;59.90;5.30;;;;;;;;;;5071233;28;21069;-68
2023/04/18 14:01:21;;;;;;;59.93;5.80;;;;;;;;;;5071804;28;20454;-68
2023/04/18 14:03:48;;;;;;;60.57;6.17;;;;;;;;;;5071610;28;20998;-68
2023/04/18 14:06:16;;;;;;;60.53;6.10;;;;;;;;;;5071932;28;20458;-68
2023/04/18 14:08:43;;;;;;;60.57;5.67;;;;;;;;;;5071327;28;20478;-68
2023/04/18 14:11:10;;;;;;;60.50;6.00;;;;;;;;;;5071895;28;20770;-68
2023/04/18 14:13:38;;;;;;;60.10;5.50;;;;;;;;;;5071715;28;20454;-68
2023/04/18 14:16:05;;;;;;;59.47;5.70;;;;;;;;;;5071580;28;20450;-68
2023/04/18 14:18:32;;;;;;;59.30;5.30;;;;;;;;;;5071186;28;20467;-68
2023/04/18 14:21:00;;;;;;;59.27;5.60;;;;;;;;;;5071754;28;20457;-68
2023/04/18 14:23:28;;;;;;;59.77;5.90;;;;;;;;;;5071515;28;20490;-68
2023/04/18 14:25:55;;;;;;;59.63;5.83;;;;;;;;;;5071738;28;20443;-69